Time;durP1;ratioP1;P1;durP2;ratioP2;P2;SDS_P1;SDS_P2;PMS_P1;PMS_P2;Temp;Humidity;BMP_temperature;BMP_pressure;BME280_temperature;BME280_humidity;BME280_pressure;Samples;Min_cycle;Max_cycle;Signal;HPM_P1;HPM_P2
2023/09/07 00:02:14;;;;;;;5.50;3.63;;;;;;;23.69;35.45;101547.97;5001841;28;20073;-84
2023/09/07 00:04:43;;;;;;;5.40;3.70;;;;;;;23.67;35.72;101542.59;5014402;28;20069;-82
2023/09/07 00:07:12;;;;;;;4.53;3.63;;;;;;;23.66;35.71;101542.81;5006745;28;20045;-82
2023/09/07 00:09:41;;;;;;;5.95;3.92;;;;;;;23.62;35.90;101542.34;5020575;28;20049;-82
2023/09/07 00:12:09;;;;;;;5.57;3.92;;;;;;;23.60;35.61;101543.59;5006846;28;20120;-82
2023/09/07 00:14:38;;;;;;;6.13;4.00;;;;;;;23.60;35.96;101532.44;4997410;28;20038;-82
2023/09/07 00:17:06;;;;;;;5.63;4.05;;;;;;;23.55;35.74;101540.56;5008439;28;20033;-82
2023/09/07 00:19:36;;;;;;;6.20;3.80;;;;;;;23.51;36.06;101542.03;5003336;28;20080;-82
2023/09/07 00:22:04;;;;;;;6.10;4.30;;;;;;;23.48;35.85;101534.94;5003457;28;20461;-82
2023/09/07 00:24:32;;;;;;;5.50;3.75;;;;;;;23.44;35.57;101536.41;5003279;28;20050;-82
2023/09/07 00:27:00;;;;;;;5.82;3.72;;;;;;;23.41;35.64;101541.53;5002365;28;20072;-82
2023/09/07 00:29:28;;;;;;;6.25;3.97;;;;;;;23.37;35.82;101541.06;5001185;28;20054;-82
2023/09/07 00:31:57;;;;;;;5.55;4.20;;;;;;;23.36;35.94;101543.00;5004404;28;20097;-82
2023/09/07 00:34:25;;;;;;;6.53;4.43;;;;;;;23.31;36.01;101544.69;5002568;28;20042;-82
2023/09/07 00:36:53;;;;;;;8.63;4.82;;;;;;;23.27;36.02;101541.41;5003301;28;20064;-82
2023/09/07 00:39:21;;;;;;;8.27;5.22;;;;;;;23.26;35.82;101541.63;5017486;28;20046;-82
2023/09/07 00:41:49;;;;;;;9.60;5.28;;;;;;;23.22;36.03;101541.16;5008356;28;20050;-82
2023/09/07 00:44:17;;;;;;;7.88;4.93;;;;;;;23.19;36.02;101540.69;5016961;28;20037;-82
2023/09/07 00:46:45;;;;;;;9.30;5.35;;;;;;;23.17;36.07;101542.81;5007746;28;20046;-82
2023/09/07 00:49:15;;;;;;;9.30;4.97;;;;;;;23.16;36.13;101541.13;4999279;28;20100;-82
2023/09/07 00:51:43;;;;;;;8.63;5.38;;;;;;;23.10;36.08;101537.16;4998818;28;20132;-82
2023/09/07 00:54:11;;;;;;;7.55;5.20;;;;;;;23.08;36.21;101536.50;4992076;28;20109;-82
2023/09/07 00:56:39;;;;;;;9.68;5.35;;;;;;;23.04;36.18;101529.59;4998092;28;20532;-84
2023/09/07 00:59:08;;;;;;;10.02;6.43;;;;;;;23.04;36.08;101524.00;4999921;28;20045;-83
2023/09/07 01:01:36;;;;;;;9.95;5.80;;;;;;;22.98;36.16;101534.03;5004551;28;20042;-84
2023/09/07 01:04:06;;;;;;;8.23;4.88;;;;;;;22.97;36.21;101528.66;5004816;28;20141;-84
2023/09/07 01:06:40;;;;;;;7.43;4.28;;;;;;;22.99;36.32;101533.00;5001359;28;20077;-83
2023/09/07 01:09:13;;;;;;;7.18;4.57;;;;;;;22.97;36.47;101532.31;5019350;28;20088;-83
2023/09/07 01:11:41;;;;;;;6.22;4.00;;;;;;;22.92;36.20;101529.25;5003428;28;20045;-84
2023/09/07 01:14:08;;;;;;;6.20;4.03;;;;;;;22.90;36.17;101520.22;4986040;28;20694;-83
2023/09/07 01:16:38;;;;;;;5.90;3.53;;;;;;;22.91;36.12;101527.53;4979376;28;20070;-84
2023/09/07 01:19:07;;;;;;;6.28;3.60;;;;;;;22.90;36.07;101525.81;4986642;28;20573;-83
2023/09/07 01:21:38;;;;;;;6.70;3.75;;;;;;;22.90;36.36;101522.16;4997845;28;20462;-83
2023/09/07 01:24:09;;;;;;;5.65;3.67;;;;;;;22.89;36.38;101524.06;5016914;28;20176;-84
2023/09/07 01:26:38;;;;;;;6.20;3.83;;;;;;;22.88;36.37;101513.09;5006285;28;20042;-83
2023/09/07 01:29:08;;;;;;;6.40;3.97;;;;;;;22.86;36.18;101512.44;5015884;28;20048;-85
2023/09/07 01:31:37;;;;;;;6.70;4.00;;;;;;;22.85;36.08;101516.28;4997837;28;20042;-83
2023/09/07 01:34:06;;;;;;;5.13;3.50;;;;;;;22.83;36.25;101524.03;5002377;28;20042;-85
2023/09/07 01:36:34;;;;;;;5.72;3.58;;;;;;;22.82;36.41;101513.91;5002571;28;20049;-84
2023/09/07 01:39:05;;;;;;;4.60;3.38;;;;;;;22.82;36.63;101511.13;4995105;28;20047;-83
2023/09/07 01:41:34;;;;;;;4.67;3.70;;;;;;;22.76;36.29;101514.69;5001554;28;20424;-82
2023/09/07 01:44:02;;;;;;;5.30;3.30;;;;;;;22.74;36.04;101509.34;5002418;28;20492;-84
2023/09/07 01:46:30;;;;;;;6.30;3.53;;;;;;;22.72;36.12;101507.78;4999100;28;20053;-84
2023/09/07 01:48:58;;;;;;;5.07;3.20;;;;;;;22.69;36.03;101514.63;5002559;28;20145;-83
2023/09/07 01:51:27;;;;;;;5.10;3.55;;;;;;;22.67;36.24;101515.91;5007512;28;20049;-85
2023/09/07 01:53:56;;;;;;;4.38;3.13;;;;;;;22.64;36.22;101509.66;5004574;28;20046;-82
2023/09/07 01:56:25;;;;;;;5.53;3.70;;;;;;;22.65;36.44;101521.69;5002238;28;20038;-84
2023/09/07 01:58:53;;;;;;;5.25;3.45;;;;;;;22.60;36.30;101510.22;5004056;28;20514;-83
2023/09/07 02:01:23;;;;;;;5.00;3.70;;;;;;;22.59;36.39;101511.31;5001720;28;20058;-84
2023/09/07 02:03:51;;;;;;;4.93;3.15;;;;;;;22.56;36.41;101511.69;5001353;28;20038;-85
2023/09/07 02:06:19;;;;;;;4.95;3.47;;;;;;;22.52;36.49;101508.41;5003328;28;20054;-82
2023/09/07 02:08:48;;;;;;;6.93;4.10;;;;;;;22.51;36.38;101508.59;4993381;28;20054;-84
2023/09/07 02:11:16;;;;;;;4.78;3.25;;;;;;;22.48;36.39;101507.09;4997895;28;20038;-84
2023/09/07 02:13:48;;;;;;;6.30;3.33;;;;;;;22.47;36.44;101501.69;5002725;28;20054;-83
2023/09/07 02:16:18;;;;;;;5.07;3.45;;;;;;;22.40;36.40;101501.63;4996206;28;20289;-83
2023/09/07 02:18:46;;;;;;;4.35;3.05;;;;;;;22.40;36.26;101507.19;4991207;28;20132;-83
2023/09/07 02:21:16;;;;;;;7.35;3.50;;;;;;;22.38;36.56;101500.09;5006751;28;20106;-83
2023/09/07 02:23:44;;;;;;;4.50;3.22;;;;;;;22.36;36.48;101502.19;5013788;28;20077;-84
2023/09/07 02:26:12;;;;;;;5.85;3.30;;;;;;;22.34;36.40;101499.63;5009902;28;20053;-84
2023/09/07 02:28:40;;;;;;;4.28;3.17;;;;;;;22.33;36.25;101497.03;5022149;28;20049;-83
2023/09/07 02:31:10;;;;;;;5.93;3.58;;;;;;;22.32;36.32;101498.09;5012697;28;20111;-83
2023/09/07 02:33:38;;;;;;;5.28;3.53;;;;;;;22.27;36.62;101496.75;5037811;28;20065;-83
2023/09/07 02:36:06;;;;;;;6.88;4.15;;;;;;;22.24;36.50;101490.72;5009778;28;20046;-85
2023/09/07 02:38:34;;;;;;;5.88;3.95;;;;;;;22.21;36.57;101493.88;5019129;28;20049;-84
2023/09/07 02:41:03;;;;;;;6.65;4.03;;;;;;;22.20;36.40;101492.13;5025018;28;20470;-83
2023/09/07 02:43:33;;;;;;;6.47;4.20;;;;;;;22.18;36.32;101495.13;5030953;28;20045;-82
2023/09/07 02:46:01;;;;;;;6.75;4.35;;;;;;;22.16;36.10;101493.59;5006941;28;20049;-82
2023/09/07 02:48:30;;;;;;;8.38;4.15;;;;;;;22.18;36.40;101505.41;5013737;28;20141;-82
2023/09/07 02:51:00;;;;;;;6.80;4.00;;;;;;;22.14;36.36;101499.38;5014648;28;20100;-82
2023/09/07 02:53:28;;;;;;;6.95;3.95;;;;;;;22.15;36.03;101508.59;5031475;28;20480;-82
2023/09/07 02:55:57;;;;;;;5.47;3.97;;;;;;;22.14;36.23;101506.88;5015345;28;20189;-82
2023/09/07 02:58:27;;;;;;;5.85;3.30;;;;;;;22.14;36.05;101499.38;5009001;28;20049;-82
2023/09/07 03:00:55;;;;;;;6.55;3.38;;;;;;;22.13;35.96;101496.78;5014662;28;20061;-81
2023/09/07 03:03:25;;;;;;;5.40;3.72;;;;;;;22.11;35.96;101490.53;5029909;28;20057;-82
2023/09/07 03:05:55;;;;;;;5.80;3.55;;;;;;;22.12;35.90;101497.81;5015345;28;20041;-82
2023/09/07 03:08:24;;;;;;;5.75;3.40;;;;;;;22.09;36.21;101492.66;5011178;28;20508;-82
2023/09/07 03:10:52;;;;;;;6.57;3.28;;;;;;;22.07;35.93;101492.84;5014866;28;20060;-82
2023/09/07 03:13:20;;;;;;;4.75;3.20;;;;;;;22.05;35.97;101492.19;5016460;28;20041;-81
2023/09/07 03:15:48;;;;;;;5.30;3.47;;;;;;;22.05;36.16;101499.66;5032532;28;20045;-82
2023/09/07 03:18:16;;;;;;;4.95;3.45;;;;;;;22.03;36.37;101497.06;5015174;28;20788;-82
2023/09/07 03:20:44;;;;;;;7.18;3.55;;;;;;;22.01;36.40;101493.63;5019966;28;20041;-81
2023/09/07 03:23:13;;;;;;;5.15;3.38;;;;;;;22.01;36.44;101495.56;5003262;28;20148;-82
2023/09/07 03:25:42;;;;;;;5.82;3.50;;;;;;;21.96;36.22;101493.34;4998266;28;20061;-82
2023/09/07 03:28:09;;;;;;;4.47;3.25;;;;;;;21.93;36.31;101490.09;5012209;28;20562;-82
2023/09/07 03:30:39;;;;;;;4.35;3.22;;;;;;;21.91;36.31;101487.50;5013312;28;20042;-82
2023/09/07 03:33:07;;;;;;;4.70;3.28;;;;;;;21.87;36.43;101484.19;5011358;28;20364;-82
2023/09/07 03:35:35;;;;;;;5.70;3.40;;;;;;;21.85;36.16;101477.06;5017245;28;20091;-82
2023/09/07 03:38:04;;;;;;;4.88;3.20;;;;;;;21.82;36.40;101475.56;5034861;28;20113;-82
2023/09/07 03:40:33;;;;;;;5.75;3.42;;;;;;;21.83;36.47;101480.06;5011962;28;20080;-82
2023/09/07 03:43:01;;;;;;;4.82;3.15;;;;;;;21.78;36.18;101488.13;5016131;28;20116;-82
2023/09/07 03:45:30;;;;;;;4.85;3.33;;;;;;;21.77;36.18;101482.75;5019107;28;20125;-82
2023/09/07 03:47:58;;;;;;;5.20;3.35;;;;;;;21.75;36.43;101484.88;5021158;28;20050;-82
2023/09/07 03:50:26;;;;;;;4.75;3.35;;;;;;;21.73;36.51;101478.63;5024378;28;20042;-82
2023/09/07 03:52:54;;;;;;;5.22;3.33;;;;;;;21.72;36.26;101482.47;5016128;28;20081;-82
2023/09/07 03:55:23;;;;;;;5.35;3.33;;;;;;;21.70;36.42;101485.44;5011148;28;20255;-82
2023/09/07 03:57:52;;;;;;;4.50;3.20;;;;;;;21.71;36.39;101487.19;4995704;28;20481;-82
2023/09/07 04:00:20;;;;;;;5.38;3.20;;;;;;;21.68;36.62;101489.50;5032971;28;20045;-82
2023/09/07 04:02:48;;;;;;;4.30;3.30;;;;;;;21.67;36.58;101485.84;5012771;28;20042;-82
2023/09/07 04:05:17;;;;;;;4.82;3.40;;;;;;;21.67;36.25;101483.06;5028683;28;20034;-82
2023/09/07 04:07:46;;;;;;;4.82;3.33;;;;;;;21.65;36.63;101482.38;5013704;28;20089;-80
2023/09/07 04:10:14;;;;;;;4.30;3.13;;;;;;;21.63;36.36;101483.63;5011955;28;20125;-82
2023/09/07 04:12:42;;;;;;;4.90;3.40;;;;;;;21.63;36.63;101486.41;5021991;28;20094;-85
2023/09/07 04:15:12;;;;;;;4.28;3.15;;;;;;;21.64;36.42;101488.13;5008313;28;20128;-84
2023/09/07 04:17:40;;;;;;;4.75;3.15;;;;;;;21.59;36.35;101479.50;5027993;28;20371;-85
2023/09/07 04:20:11;;;;;;;5.00;3.50;;;;;;;21.59;36.15;101483.16;5016478;28;20037;-83
2023/09/07 04:22:40;;;;;;;4.13;3.00;;;;;;;21.57;36.11;101478.81;5012155;28;20072;-83
2023/09/07 04:25:09;;;;;;;5.57;3.30;;;;;;;21.56;36.69;101479.88;5013967;28;20038;-84
2023/09/07 04:27:37;;;;;;;4.50;3.10;;;;;;;21.55;36.57;101483.72;5027414;28;20072;-84
2023/09/07 04:30:07;;;;;;;4.53;3.03;;;;;;;21.55;36.62;101486.50;5008082;28;20117;-85
2023/09/07 04:32:38;;;;;;;6.18;3.72;;;;;;;21.53;36.30;101483.91;5010583;28;20042;-85
2023/09/07 04:35:07;;;;;;;5.10;3.65;;;;;;;21.51;36.71;101486.03;5007275;28;20042;-84
2023/09/07 04:37:36;;;;;;;4.75;3.42;;;;;;;21.49;36.67;101488.13;5008251;28;20508;-84
2023/09/07 04:40:07;;;;;;;5.82;3.70;;;;;;;21.50;36.29;101484.31;5011716;28;20512;-84
2023/09/07 04:42:35;;;;;;;5.55;3.45;;;;;;;21.45;36.43;101484.00;5009911;28;20088;-84
2023/09/07 04:45:04;;;;;;;5.43;3.25;;;;;;;21.44;36.50;101485.91;5003052;28;20136;-85
2023/09/07 04:47:33;;;;;;;5.55;3.30;;;;;;;21.41;36.34;101480.75;5014038;28;20068;-83
2023/09/07 04:50:04;;;;;;;4.53;3.08;;;;;;;21.41;36.57;101477.97;5030457;28;20064;-86
2023/09/07 04:52:32;;;;;;;5.43;3.42;;;;;;;21.38;36.08;101483.03;5015803;28;20045;-83
2023/09/07 04:55:00;;;;;;;5.53;3.47;;;;;;;21.36;36.17;101483.22;5022213;28;20532;-85
2023/09/07 04:57:28;;;;;;;5.80;3.75;;;;;;;21.36;35.96;101497.13;5015392;28;20054;-85
2023/09/07 04:59:56;;;;;;;5.95;3.50;;;;;;;21.34;36.08;101496.50;5014287;28;20044;-83
2023/09/07 05:02:24;;;;;;;5.28;3.22;;;;;;;21.32;36.49;101490.22;5021047;28;20042;-84
2023/09/07 05:04:52;;;;;;;4.57;3.40;;;;;;;21.31;36.31;101487.63;5002542;28;20341;-84
2023/09/07 05:07:21;;;;;;;5.05;3.53;;;;;;;21.32;36.61;101498.59;5011361;28;20057;-84
2023/09/07 05:09:49;;;;;;;5.35;3.67;;;;;;;21.30;36.56;101499.81;5013501;28;20176;-84
2023/09/07 05:12:19;;;;;;;5.72;3.58;;;;;;;21.29;36.04;101503.66;5009438;28;20437;-83
2023/09/07 05:14:47;;;;;;;6.00;3.60;;;;;;;21.28;36.14;101504.72;5005248;28;20502;-83
2023/09/07 05:17:15;;;;;;;5.55;3.58;;;;;;;21.26;36.34;101501.28;5009691;28;20088;-83
2023/09/07 05:19:43;;;;;;;4.60;3.42;;;;;;;21.24;36.28;101507.00;5005085;28;20053;-83
2023/09/07 05:22:11;;;;;;;6.05;3.60;;;;;;;21.24;36.12;101517.25;5007041;28;20053;-82
2023/09/07 05:24:41;;;;;;;5.13;3.53;;;;;;;21.24;36.35;101514.47;4998083;28;20046;-83
2023/09/07 05:27:10;;;;;;;5.30;3.63;;;;;;;21.19;36.41;101509.44;5031833;28;20057;-83
2023/09/07 05:29:38;;;;;;;5.07;3.78;;;;;;;21.19;36.20;101514.19;5023427;28;20053;-83
2023/09/07 05:32:07;;;;;;;5.68;3.67;;;;;;;21.18;36.41;101518.03;5011549;28;20128;-83
2023/09/07 05:34:35;;;;;;;5.65;3.70;;;;;;;21.15;36.60;101519.25;4998903;28;20049;-81
2023/09/07 05:37:03;;;;;;;5.53;4.03;;;;;;;21.13;36.74;101516.66;5030375;28;20123;-81
2023/09/07 05:39:31;;;;;;;6.25;3.88;;;;;;;21.11;36.32;101515.97;5013723;28;20099;-82
2023/09/07 05:42:00;;;;;;;6.15;3.70;;;;;;;21.12;36.71;101527.97;5006531;28;20428;-82
2023/09/07 05:44:28;;;;;;;5.07;3.50;;;;;;;21.09;36.70;101532.00;5000618;28;20049;-82
2023/09/07 05:46:58;;;;;;;6.70;3.40;;;;;;;21.08;36.75;101530.28;4990296;28;20068;-82
2023/09/07 05:49:27;;;;;;;5.45;3.80;;;;;;;21.07;36.60;101530.47;4992272;28;20496;-82
2023/09/07 05:51:55;;;;;;;5.20;3.90;;;;;;;21.07;36.97;101533.25;4994919;28;20056;-82
2023/09/07 05:54:24;;;;;;;5.93;4.07;;;;;;;21.06;36.73;101534.28;5007320;28;20070;-82
2023/09/07 05:56:52;;;;;;;5.18;3.72;;;;;;;21.05;36.94;101535.34;5015780;28;20038;-82
2023/09/07 05:59:21;;;;;;;6.32;4.45;;;;;;;21.08;36.84;101537.75;5015472;28;20041;-82
2023/09/07 06:01:49;;;;;;;5.75;3.88;;;;;;;21.04;36.96;101533.59;5027187;28;20072;-82
2023/09/07 06:04:17;;;;;;;6.55;4.18;;;;;;;21.05;37.38;101540.91;4996970;28;20061;-82
2023/09/07 06:06:45;;;;;;;5.88;3.78;;;;;;;21.04;37.11;101540.03;5029627;28;20394;-82
2023/09/07 06:09:13;;;;;;;5.85;4.10;;;;;;;21.04;37.15;101540.03;5016845;28;20050;-82
2023/09/07 06:11:41;;;;;;;5.80;4.25;;;;;;;21.05;37.24;101539.00;5012896;28;20532;-82
2023/09/07 06:14:09;;;;;;;5.43;4.13;;;;;;;21.06;37.28;101539.84;5024055;28;20062;-82
2023/09/07 06:16:39;;;;;;;5.80;3.70;;;;;;;21.09;37.36;101545.94;5028483;28;20548;-82
2023/09/07 06:19:07;;;;;;;6.45;4.20;;;;;;;21.08;37.77;101557.25;5012612;28;20100;-82
2023/09/07 06:21:35;;;;;;;7.13;4.13;;;;;;;21.09;37.54;101553.41;5013771;28;20100;-82
2023/09/07 06:24:06;;;;;;;5.45;4.00;;;;;;;21.11;37.79;101548.50;5012010;28;20050;-83
2023/09/07 06:26:34;;;;;;;6.65;4.28;;;;;;;21.11;37.70;101545.72;5012368;28;20069;-84
2023/09/07 06:29:02;;;;;;;5.07;4.30;;;;;;;21.13;37.57;101551.97;5011952;28;20588;-84
2023/09/07 06:31:33;;;;;;;6.65;3.90;;;;;;;21.18;37.91;101551.44;5019915;28;20048;-84
2023/09/07 06:34:02;;;;;;;5.43;4.20;;;;;;;21.18;37.51;101557.00;5016011;28;20042;-84
2023/09/07 06:36:30;;;;;;;5.65;3.95;;;;;;;21.18;37.66;101560.66;4997640;28;20104;-83
2023/09/07 06:39:14;;;;;;;5.88;3.70;;;;;;;21.19;38.14;101562.34;4995993;28;20050;-84
2023/09/07 06:41:42;;;;;;;5.47;3.65;;;;;;;21.22;37.70;101573.13;5010702;28;20045;-84
2023/09/07 06:44:10;;;;;;;6.28;3.78;;;;;;;21.25;38.04;101571.88;5015127;28;20111;-84
2023/09/07 06:46:39;;;;;;;5.32;3.78;;;;;;;21.27;37.96;101570.69;5011887;28;20442;-85
2023/09/07 06:49:09;;;;;;;7.70;4.07;;;;;;;21.32;38.30;101568.19;5011800;28;20145;-84
2023/09/07 06:51:37;;;;;;;5.20;3.42;;;;;;;21.34;38.38;101570.78;5019616;28;20049;-83
2023/09/07 06:54:06;;;;;;;6.45;4.28;;;;;;;21.38;38.33;101574.91;5012519;28;20410;-83
2023/09/07 06:56:34;;;;;;;5.63;4.20;;;;;;;21.41;38.39;101566.19;4994518;28;20046;-83
2023/09/07 06:59:02;;;;;;;5.82;4.03;;;;;;;21.47;38.84;101571.00;5006270;28;20038;-83
2023/09/07 07:01:31;;;;;;;6.97;4.35;;;;;;;21.52;39.03;101563.81;5008641;28;20067;-83
2023/09/07 07:03:59;;;;;;;6.20;4.43;;;;;;;21.59;39.34;101565.84;4994745;28;20038;-83
2023/09/07 07:06:29;;;;;;;5.60;3.65;;;;;;;21.69;38.92;101572.00;4995259;28;20152;-83
2023/09/07 07:08:57;;;;;;;6.55;4.10;;;;;;;21.74;38.96;101572.31;4993700;28;20049;-82
2023/09/07 07:11:25;;;;;;;10.05;4.00;;;;;;;21.82;38.86;101567.50;5001848;28;20049;-82
2023/09/07 07:13:52;;;;;;;7.22;3.78;;;;;;;21.95;39.06;101574.34;5009826;28;20038;-83
2023/09/07 07:16:20;;;;;;;5.20;3.78;;;;;;;22.04;38.94;101574.06;5022524;28;20099;-84
2023/09/07 07:18:48;;;;;;;5.95;3.90;;;;;;;22.16;38.54;101580.03;5022037;28;20053;-85
2023/09/07 07:21:17;;;;;;;5.55;3.90;;;;;;;22.29;38.69;101577.41;5019923;28;20128;-83
2023/09/07 07:23:46;;;;;;;4.97;3.25;;;;;;;22.44;38.54;101581.03;5025032;28;20061;-84
2023/09/07 07:26:14;;;;;;;5.65;3.53;;;;;;;22.54;38.38;101586.34;5007342;28;20069;-78
2023/09/07 07:28:43;;;;;;;4.95;3.38;;;;;;;22.68;38.64;101588.22;5019484;28;20101;-79
2023/09/07 07:31:11;;;;;;;5.05;3.30;;;;;;;22.81;38.29;101584.75;5013908;28;20072;-79
2023/09/07 07:33:44;;;;;;;5.32;3.60;;;;;;;22.93;37.87;101577.56;5015357;28;20038;-77
2023/09/07 07:36:11;;;;;;;4.57;3.20;;;;;;;23.06;37.61;101577.72;5016437;28;20164;-78
2023/09/07 07:38:40;;;;;;;5.00;3.47;;;;;;;23.18;37.50;101578.91;5022773;28;20164;-78
2023/09/07 07:41:09;;;;;;;4.25;3.08;;;;;;;23.32;37.41;101571.56;5019968;28;20115;-78
2023/09/07 07:43:37;;;;;;;5.20;3.67;;;;;;;23.41;37.14;101572.28;5022145;28;20040;-79
2023/09/07 07:46:05;;;;;;;5.20;3.80;;;;;;;23.50;36.74;101574.69;5025208;28;20125;-80
2023/09/07 07:48:35;;;;;;;5.57;3.70;;;;;;;23.61;36.47;101571.34;5021807;28;20045;-77
2023/09/07 07:51:05;;;;;;;6.20;3.75;;;;;;;23.72;36.61;101575.53;5019937;28;20529;-78
2023/09/07 07:53:37;;;;;;;6.05;3.80;;;;;;;23.82;36.63;101564.88;5014932;28;20054;-78
2023/09/07 07:56:05;;;;;;;5.03;3.50;;;;;;;23.91;36.46;101569.22;5014928;28;20041;-78
2023/09/07 07:58:34;;;;;;;4.47;3.30;;;;;;;24.04;36.58;101572.13;5013101;28;20045;-78
2023/09/07 08:01:02;;;;;;;4.15;3.28;;;;;;;24.12;36.40;101562.69;5014376;28;20037;-79
2023/09/07 08:03:32;;;;;;;5.90;3.50;;;;;;;24.23;36.05;101564.91;5028413;28;20052;-78
2023/09/07 08:06:01;;;;;;;5.15;3.45;;;;;;;24.33;35.78;101567.28;5022080;28;20049;-79
2023/09/07 08:08:29;;;;;;;4.72;3.13;;;;;;;24.42;35.43;101564.16;5031524;28;20069;-84
2023/09/07 08:10:59;;;;;;;4.40;3.33;;;;;;;24.53;35.01;101554.28;5013877;28;20417;-83
2023/09/07 08:13:28;;;;;;;4.97;3.10;;;;;;;24.62;34.81;101561.44;5024648;28;20045;-84
2023/09/07 08:15:59;;;;;;;4.18;3.00;;;;;;;24.73;34.46;101560.78;5021615;28;20045;-83
2023/09/07 08:18:28;;;;;;;4.22;3.00;;;;;;;24.80;34.13;101563.66;5015094;28;20066;-85
2023/09/07 08:20:56;;;;;;;3.35;2.75;;;;;;;24.89;33.97;101557.63;5016539;28;20038;-83
2023/09/07 08:23:24;;;;;;;4.93;3.17;;;;;;;25.00;33.87;101560.91;5034812;28;20103;-83
2023/09/07 08:25:52;;;;;;;3.75;2.78;;;;;;;25.08;33.55;101561.56;5029937;28;20044;-83
2023/09/07 08:28:22;;;;;;;3.83;2.90;;;;;;;25.17;33.41;101563.06;5023365;28;20393;-84
2023/09/07 08:30:53;;;;;;;4.60;3.00;;;;;;;25.27;33.08;101551.44;5039889;28;20061;-83
2023/09/07 08:33:28;;;;;;;3.78;2.63;;;;;;;25.35;33.03;101553.19;5023829;28;20458;-83
2023/09/07 08:35:59;;;;;;;4.75;3.30;;;;;;;25.43;33.29;101548.22;5019113;28;20073;-85
2023/09/07 08:38:27;;;;;;;4.18;3.03;;;;;;;25.52;33.17;101558.16;5025130;28;20488;-83
2023/09/07 08:40:56;;;;;;;4.00;3.15;;;;;;;25.61;32.82;101554.06;5020209;28;20045;-82
2023/09/07 08:43:25;;;;;;;4.05;3.15;;;;;;;25.71;32.62;101562.03;5005827;28;20046;-86
2023/09/07 08:46:05;;;;;;;4.57;3.10;;;;;;;25.84;31.87;101562.00;4994619;28;20141;-83
2023/09/07 08:48:35;;;;;;;4.88;3.03;;;;;;;25.90;32.23;101552.72;5009969;28;20046;-83
2023/09/07 08:51:04;;;;;;;4.82;2.90;;;;;;;25.98;32.01;101549.66;5029374;28;20065;-83
2023/09/07 08:53:33;;;;;;;4.63;3.30;;;;;;;26.06;31.89;101556.13;4994997;28;20048;-83
2023/09/07 08:56:02;;;;;;;3.88;2.85;;;;;;;26.15;31.90;101554.81;5003042;28;20073;-83
2023/09/07 08:58:31;;;;;;;3.70;3.00;;;;;;;26.21;31.40;101552.03;5027701;28;20064;-84
2023/09/07 09:01:00;;;;;;;5.45;3.40;;;;;;;26.28;31.08;101558.47;5011874;28;22744;-83
2023/09/07 09:03:31;;;;;;;4.90;3.50;;;;;;;26.35;30.92;101553.69;5031290;28;20049;-83
2023/09/07 09:06:00;;;;;;;3.70;2.78;;;;;;;26.45;31.34;101547.59;5010673;28;20128;-86
2023/09/07 09:08:28;;;;;;;3.92;2.85;;;;;;;26.51;31.03;101551.44;5014008;28;20053;-83
2023/09/07 09:11:02;;;;;;;3.92;2.97;;;;;;;26.62;30.52;101560.06;5020911;28;20042;-86
2023/09/07 09:13:31;;;;;;;4.55;3.20;;;;;;;26.67;31.17;101550.97;5002261;28;20044;-84
2023/09/07 09:16:03;;;;;;;5.00;3.55;;;;;;;26.73;30.30;101547.25;5013365;28;20453;-84
2023/09/07 09:18:31;;;;;;;4.57;3.03;;;;;;;26.78;30.08;101547.47;4987535;28;20056;-82
2023/09/07 09:21:00;;;;;;;4.05;2.88;;;;;;;26.88;29.87;101552.56;4982473;28;20053;-82
2023/09/07 09:23:32;;;;;;;6.20;4.50;;;;;;;26.94;29.79;101548.88;5005085;28;20149;-82
2023/09/07 09:26:00;;;;;;;4.50;3.95;;;;;;;26.95;30.08;101542.16;5014108;28;20099;-82
2023/09/07 09:28:29;;;;;;;4.20;3.50;;;;;;;27.03;30.22;101541.88;5016362;28;20041;-82
2023/09/07 09:30:57;;;;;;;4.22;3.13;;;;;;;27.09;30.31;101533.41;5016352;28;20076;-82
2023/09/07 09:33:27;;;;;;;3.58;2.88;;;;;;;27.18;29.87;101539.63;4988824;28;20045;-82
2023/09/07 09:35:56;;;;;;;4.45;3.17;;;;;;;27.24;29.70;101535.03;4999261;28;20046;-82
2023/09/07 09:38:25;;;;;;;4.07;3.10;;;;;;;27.31;29.55;101533.91;4997990;28;20064;-82
2023/09/07 09:40:54;;;;;;;5.18;2.95;;;;;;;27.35;29.83;101538.00;5022039;28;20151;-82
2023/09/07 09:43:23;;;;;;;3.40;2.60;;;;;;;27.43;29.60;101542.47;5032785;28;20137;-82
2023/09/07 09:45:52;;;;;;;4.60;3.15;;;;;;;27.50;29.33;101543.25;5016446;28;20048;-82
2023/09/07 09:48:21;;;;;;;4.45;3.13;;;;;;;27.57;29.03;101541.25;5032401;28;20057;-81
2023/09/07 09:50:50;;;;;;;4.93;3.35;;;;;;;27.63;29.32;101534.69;5015077;28;20131;-82
2023/09/07 09:53:20;;;;;;;4.28;2.85;;;;;;;27.69;29.20;101536.63;5012333;28;20133;-82
2023/09/07 09:55:52;;;;;;;4.45;3.20;;;;;;;27.76;28.65;101523.34;5018401;28;20124;-82
2023/09/07 09:58:20;;;;;;;4.85;3.47;;;;;;;27.78;28.76;101523.94;5030651;28;20419;-82
2023/09/07 10:00:50;;;;;;;5.22;3.08;;;;;;;27.86;28.45;101522.81;5034183;28;20120;-82
2023/09/07 10:03:23;;;;;;;6.13;3.22;;;;;;;27.91;28.28;101522.97;5032245;28;20051;-82
2023/09/07 10:05:51;;;;;;;4.95;3.30;;;;;;;27.92;28.93;101526.63;5032883;28;20293;-82
2023/09/07 10:08:22;;;;;;;4.75;3.03;;;;;;;27.97;28.63;101518.34;5034571;28;20516;-82
2023/09/07 10:10:54;;;;;;;4.00;3.30;;;;;;;28.02;28.29;101525.00;5035393;28;20042;-82
2023/09/07 10:13:33;;;;;;;4.43;3.17;;;;;;;28.08;28.08;101526.00;5034149;28;20528;-82
2023/09/07 10:16:09;;;;;;;4.03;3.40;;;;;;;28.12;28.65;101518.81;5023448;28;20057;-81
2023/09/07 10:18:39;;;;;;;3.85;3.20;;;;;;;28.20;28.31;101518.47;4999017;28;20046;-82
2023/09/07 10:21:07;;;;;;;4.55;3.13;;;;;;;28.23;28.27;101518.06;4997423;28;20505;-82
2023/09/07 10:23:37;;;;;;;4.43;3.40;;;;;;;28.29;27.80;101519.91;5011629;28;20069;-81
2023/09/07 10:26:12;;;;;;;3.58;2.97;;;;;;;28.35;27.55;101509.69;5035385;28;20064;-82
2023/09/07 10:28:40;;;;;;;3.75;3.10;;;;;;;28.38;27.76;101506.38;5016164;28;20385;-81
2023/09/07 10:31:15;;;;;;;4.32;3.10;;;;;;;28.47;27.70;101510.59;5016110;28;20041;-81
2023/09/07 10:33:43;;;;;;;3.90;3.10;;;;;;;28.51;28.47;101500.59;5017678;28;20059;-81
2023/09/07 10:36:22;;;;;;;4.30;3.30;;;;;;;28.59;26.95;101498.28;5015571;28;20344;-82
2023/09/07 10:38:52;;;;;;;3.75;2.80;;;;;;;28.63;27.97;101495.84;5032810;28;20053;-81
2023/09/07 10:41:22;;;;;;;4.18;3.28;;;;;;;28.70;27.84;101495.75;5014704;28;20046;-82
2023/09/07 10:43:52;;;;;;;4.22;3.33;;;;;;;28.79;27.82;101491.50;5014494;28;20053;-81
2023/09/07 10:46:21;;;;;;;4.10;3.28;;;;;;;28.84;27.50;101488.84;5017691;28;20433;-81
2023/09/07 10:48:51;;;;;;;4.55;2.95;;;;;;;28.91;27.55;101490.47;5006935;28;20044;-81
2023/09/07 10:51:19;;;;;;;4.00;2.90;;;;;;;28.96;27.44;101484.09;5023323;28;20045;-81
2023/09/07 10:53:47;;;;;;;3.78;2.90;;;;;;;29.03;27.86;101483.97;5015512;28;20046;-81
2023/09/07 10:56:15;;;;;;;3.78;2.97;;;;;;;29.10;27.26;101484.75;5013731;28;20042;-81
2023/09/07 10:58:45;;;;;;;4.18;3.25;;;;;;;29.18;27.21;101487.22;5022120;28;20045;-81
2023/09/07 11:01:13;;;;;;;4.40;3.10;;;;;;;29.20;27.32;101485.84;5026661;28;20148;-81
2023/09/07 11:03:44;;;;;;;3.70;2.72;;;;;;;29.23;27.44;101474.13;5028890;28;20056;-81
2023/09/07 11:06:16;;;;;;;3.53;2.63;;;;;;;29.32;27.24;101481.13;5011407;28;20523;-81
2023/09/07 11:08:44;;;;;;;5.15;2.95;;;;;;;29.33;27.08;101468.75;5029478;28;20129;-81
2023/09/07 11:11:12;;;;;;;3.80;2.70;;;;;;;29.40;27.08;101474.25;5005049;28;20052;-81
2023/09/07 11:13:40;;;;;;;4.22;2.90;;;;;;;29.46;27.01;101478.06;5008850;28;20038;-81
2023/09/07 11:16:10;;;;;;;4.15;2.88;;;;;;;29.51;26.40;101472.56;5009566;28;20046;-81
2023/09/07 11:18:38;;;;;;;4.10;2.80;;;;;;;29.52;25.96;101469.47;5010840;28;20053;-81
2023/09/07 11:21:07;;;;;;;4.25;2.97;;;;;;;29.56;26.64;101464.19;5038045;28;20244;-81
2023/09/07 11:23:37;;;;;;;3.97;2.80;;;;;;;29.60;26.00;101466.25;5008991;28;20045;-81
2023/09/07 11:26:06;;;;;;;3.92;2.58;;;;;;;29.63;26.24;101468.59;5012876;28;20498;-81
2023/09/07 11:28:35;;;;;;;4.35;3.00;;;;;;;29.68;25.75;101454.59;5036372;28;20045;-81
2023/09/07 11:31:03;;;;;;;3.67;2.70;;;;;;;29.73;25.75;101453.91;5037854;28;20045;-81
2023/09/07 11:33:34;;;;;;;3.50;2.90;;;;;;;29.78;25.62;101451.19;5032142;28;20564;-81